sensor_id;sensor_type;location;lat;lon;timestamp;P1;durP1;ratioP1;P2;durP2;ratioP2
42124;SDS011;27787;44.594;11.046;2023-07-20T04:37:19;10.02;;;3.33;;
42124;SDS011;27787;44.594;11.046;2023-07-20T04:40:05;8.07;;;3.35;;
42124;SDS011;27787;44.594;11.046;2023-07-20T04:45:35;11.32;;;3.05;;
42124;SDS011;27787;44.594;11.046;2023-07-20T04:48:20;5.93;;;2.85;;
42124;SDS011;27787;44.594;11.046;2023-07-20T04:51:09;5.60;;;3.05;;
42124;SDS011;27787;44.594;11.046;2023-07-20T04:53:54;5.10;;;2.70;;
42124;SDS011;27787;44.594;11.046;2023-07-20T04:56:39;6.75;;;2.80;;
42124;SDS011;27787;44.594;11.046;2023-07-20T04:59:26;8.55;;;3.53;;
42124;SDS011;27787;44.594;11.046;2023-07-20T05:02:10;10.35;;;3.50;;
42124;SDS011;27787;44.594;11.046;2023-07-20T05:04:54;6.20;;;3.30;;
42124;SDS011;27787;44.594;11.046;2023-07-20T05:07:39;9.85;;;2.92;;
42124;SDS011;27787;44.594;11.046;2023-07-20T05:13:08;7.78;;;3.42;;
42124;SDS011;27787;44.594;11.046;2023-07-20T05:15:52;12.80;;;3.75;;
42124;SDS011;27787;44.594;11.046;2023-07-20T05:18:37;8.57;;;3.90;;
42124;SDS011;27787;44.594;11.046;2023-07-20T05:21:21;9.30;;;3.60;;
42124;SDS011;27787;44.594;11.046;2023-07-20T05:24:05;8.70;;;3.30;;
42124;SDS011;27787;44.594;11.046;2023-07-20T05:29:34;12.07;;;2.88;;
42124;SDS011;27787;44.594;11.046;2023-07-20T05:32:19;14.00;;;3.40;;
42124;SDS011;27787;44.594;11.046;2023-07-20T05:35:03;14.18;;;3.55;;
42124;SDS011;27787;44.594;11.046;2023-07-20T05:37:48;7.80;;;3.20;;
42124;SDS011;27787;44.594;11.046;2023-07-20T05:40:32;12.98;;;3.97;;
42124;SDS011;27787;44.594;11.046;2023-07-20T05:43:16;10.85;;;3.40;;
42124;SDS011;27787;44.594;11.046;2023-07-20T05:46:01;10.88;;;3.65;;
42124;SDS011;27787;44.594;11.046;2023-07-20T05:48:45;10.02;;;3.58;;
42124;SDS011;27787;44.594;11.046;2023-07-20T05:51:29;9.70;;;3.67;;
42124;SDS011;27787;44.594;11.046;2023-07-20T05:54:13;12.38;;;3.42;;
42124;SDS011;27787;44.594;11.046;2023-07-20T05:56:57;7.75;;;3.72;;
42124;SDS011;27787;44.594;11.046;2023-07-20T05:59:41;13.98;;;3.75;;
42124;SDS011;27787;44.594;11.046;2023-07-20T06:02:27;10.27;;;3.47;;
42124;SDS011;27787;44.594;11.046;2023-07-20T06:05:12;7.78;;;3.40;;
42124;SDS011;27787;44.594;11.046;2023-07-20T06:07:56;11.10;;;3.78;;
42124;SDS011;27787;44.594;11.046;2023-07-20T06:10:42;9.18;;;3.38;;
42124;SDS011;27787;44.594;11.046;2023-07-20T06:13:26;9.73;;;3.08;;
42124;SDS011;27787;44.594;11.046;2023-07-20T06:16:10;8.43;;;3.70;;
42124;SDS011;27787;44.594;11.046;2023-07-20T06:18:55;12.70;;;4.60;;
42124;SDS011;27787;44.594;11.046;2023-07-20T06:21:39;19.92;;;4.07;;
42124;SDS011;27787;44.594;11.046;2023-07-20T06:24:23;12.73;;;4.90;;
42124;SDS011;27787;44.594;11.046;2023-07-20T06:27:08;9.88;;;3.85;;
42124;SDS011;27787;44.594;11.046;2023-07-20T06:29:51;9.82;;;4.10;;
42124;SDS011;27787;44.594;11.046;2023-07-20T06:32:36;8.73;;;3.90;;
42124;SDS011;27787;44.594;11.046;2023-07-20T06:35:20;8.63;;;3.97;;
42124;SDS011;27787;44.594;11.046;2023-07-20T06:38:04;7.95;;;3.05;;
42124;SDS011;27787;44.594;11.046;2023-07-20T06:40:49;7.28;;;3.42;;
42124;SDS011;27787;44.594;11.046;2023-07-20T06:43:33;10.60;;;3.25;;
42124;SDS011;27787;44.594;11.046;2023-07-20T06:46:17;7.82;;;3.33;;
42124;SDS011;27787;44.594;11.046;2023-07-20T06:49:02;9.95;;;3.17;;
42124;SDS011;27787;44.594;11.046;2023-07-20T06:51:46;12.15;;;4.40;;
42124;SDS011;27787;44.594;11.046;2023-07-20T06:54:29;10.10;;;3.58;;
42124;SDS011;27787;44.594;11.046;2023-07-20T06:57:13;12.00;;;3.45;;
42124;SDS011;27787;44.594;11.046;2023-07-20T06:59:57;7.32;;;4.05;;
42124;SDS011;27787;44.594;11.046;2023-07-20T07:02:41;9.43;;;3.70;;
42124;SDS011;27787;44.594;11.046;2023-07-20T07:05:26;13.25;;;3.63;;
42124;SDS011;27787;44.594;11.046;2023-07-20T07:08:10;8.35;;;3.67;;
42124;SDS011;27787;44.594;11.046;2023-07-20T07:10:54;9.95;;;3.40;;
42124;SDS011;27787;44.594;11.046;2023-07-20T07:13:38;12.80;;;4.43;;
42124;SDS011;27787;44.594;11.046;2023-07-20T07:16:22;9.82;;;4.10;;
42124;SDS011;27787;44.594;11.046;2023-07-20T07:19:06;8.25;;;3.58;;
42124;SDS011;27787;44.594;11.046;2023-07-20T07:21:52;13.18;;;3.40;;
42124;SDS011;27787;44.594;11.046;2023-07-20T07:24:36;14.82;;;3.85;;
42124;SDS011;27787;44.594;11.046;2023-07-20T07:27:20;8.90;;;3.17;;
42124;SDS011;27787;44.594;11.046;2023-07-20T07:30:04;13.77;;;3.60;;
42124;SDS011;27787;44.594;11.046;2023-07-20T07:32:49;12.95;;;4.10;;
42124;SDS011;27787;44.594;11.046;2023-07-20T07:35:33;13.68;;;4.25;;
42124;SDS011;27787;44.594;11.046;2023-07-20T07:38:18;7.88;;;3.85;;
42124;SDS011;27787;44.594;11.046;2023-07-20T07:41:03;7.10;;;4.00;;
42124;SDS011;27787;44.594;11.046;2023-07-20T07:43:47;8.63;;;3.40;;
42124;SDS011;27787;44.594;11.046;2023-07-20T07:46:31;8.82;;;3.60;;
42124;SDS011;27787;44.594;11.046;2023-07-20T07:49:16;13.15;;;3.80;;
42124;SDS011;27787;44.594;11.046;2023-07-20T07:54:46;14.48;;;3.83;;
42124;SDS011;27787;44.594;11.046;2023-07-20T07:57:30;13.52;;;3.50;;
42124;SDS011;27787;44.594;11.046;2023-07-20T08:00:14;14.63;;;4.82;;
42124;SDS011;27787;44.594;11.046;2023-07-20T08:02:58;11.00;;;3.70;;
42124;SDS011;27787;44.594;11.046;2023-07-20T08:05:42;9.43;;;3.83;;
42124;SDS011;27787;44.594;11.046;2023-07-20T08:08:26;8.68;;;4.10;;
42124;SDS011;27787;44.594;11.046;2023-07-20T08:11:11;11.80;;;4.00;;
42124;SDS011;27787;44.594;11.046;2023-07-20T08:13:55;6.13;;;3.38;;
42124;SDS011;27787;44.594;11.046;2023-07-20T08:19:24;9.45;;;3.78;;
42124;SDS011;27787;44.594;11.046;2023-07-20T08:22:08;10.50;;;4.53;;
42124;SDS011;27787;44.594;11.046;2023-07-20T08:24:52;10.70;;;4.13;;
42124;SDS011;27787;44.594;11.046;2023-07-20T08:27:37;10.70;;;4.28;;
42124;SDS011;27787;44.594;11.046;2023-07-20T08:30:21;15.55;;;3.92;;
42124;SDS011;27787;44.594;11.046;2023-07-20T08:33:07;13.18;;;4.57;;
42124;SDS011;27787;44.594;11.046;2023-07-20T08:35:52;8.20;;;3.97;;
42124;SDS011;27787;44.594;11.046;2023-07-20T08:38:36;10.18;;;4.07;;
42124;SDS011;27787;44.594;11.046;2023-07-20T08:41:20;8.10;;;4.00;;
42124;SDS011;27787;44.594;11.046;2023-07-20T08:44:04;10.57;;;4.65;;
42124;SDS011;27787;44.594;11.046;2023-07-20T08:46:49;12.45;;;4.03;;
42124;SDS011;27787;44.594;11.046;2023-07-20T08:49:35;11.15;;;4.15;;
42124;SDS011;27787;44.594;11.046;2023-07-20T08:52:19;9.38;;;4.10;;
42124;SDS011;27787;44.594;11.046;2023-07-20T08:55:03;16.13;;;3.90;;
42124;SDS011;27787;44.594;11.046;2023-07-20T08:57:56;11.93;;;4.43;;
42124;SDS011;27787;44.594;11.046;2023-07-20T09:00:41;10.40;;;4.05;;
42124;SDS011;27787;44.594;11.046;2023-07-20T09:03:26;13.00;;;4.20;;
42124;SDS011;27787;44.594;11.046;2023-07-20T09:06:11;7.95;;;4.22;;
42124;SDS011;27787;44.594;11.046;2023-07-20T09:08:55;11.13;;;4.07;;
42124;SDS011;27787;44.594;11.046;2023-07-20T09:11:40;13.02;;;4.50;;
42124;SDS011;27787;44.594;11.046;2023-07-20T09:17:08;8.77;;;3.95;;
42124;SDS011;27787;44.594;11.046;2023-07-20T09:19:57;14.85;;;4.85;;
42124;SDS011;27787;44.594;11.046;2023-07-20T09:22:42;11.50;;;4.65;;
42124;SDS011;27787;44.594;11.046;2023-07-20T09:25:26;9.90;;;3.85;;
42124;SDS011;27787;44.594;11.046;2023-07-20T09:28:11;14.40;;;4.78;;
42124;SDS011;27787;44.594;11.046;2023-07-20T09:30:55;9.50;;;5.07;;
42124;SDS011;27787;44.594;11.046;2023-07-20T09:33:41;16.25;;;5.15;;
42124;SDS011;27787;44.594;11.046;2023-07-20T09:36:28;16.52;;;5.35;;
42124;SDS011;27787;44.594;11.046;2023-07-20T09:39:13;14.25;;;4.95;;
42124;SDS011;27787;44.594;11.046;2023-07-20T09:42:00;13.88;;;5.15;;
42124;SDS011;27787;44.594;11.046;2023-07-20T09:44:45;10.50;;;5.07;;
42124;SDS011;27787;44.594;11.046;2023-07-20T09:50:15;17.87;;;5.03;;
42124;SDS011;27787;44.594;11.046;2023-07-20T09:53:00;13.75;;;6.13;;
42124;SDS011;27787;44.594;11.046;2023-07-20T09:55:46;9.90;;;5.00;;
42124;SDS011;27787;44.594;11.046;2023-07-20T09:58:31;15.25;;;6.32;;
42124;SDS011;27787;44.594;11.046;2023-07-20T10:01:20;14.15;;;5.45;;
42124;SDS011;27787;44.594;11.046;2023-07-20T10:04:05;17.58;;;6.03;;
42124;SDS011;27787;44.594;11.046;2023-07-20T10:06:52;15.30;;;5.80;;
42124;SDS011;27787;44.594;11.046;2023-07-20T10:09:39;10.73;;;5.22;;
42124;SDS011;27787;44.594;11.046;2023-07-20T10:17:58;12.70;;;5.45;;
42124;SDS011;27787;44.594;11.046;2023-07-20T10:20:46;9.82;;;5.72;;
42124;SDS011;27787;44.594;11.046;2023-07-20T10:23:32;18.85;;;6.70;;
42124;SDS011;27787;44.594;11.046;2023-07-20T10:29:01;15.73;;;5.78;;
42124;SDS011;27787;44.594;11.046;2023-07-20T10:31:46;14.27;;;6.15;;
42124;SDS011;27787;44.594;11.046;2023-07-20T10:34:32;13.93;;;5.72;;
42124;SDS011;27787;44.594;11.046;2023-07-20T10:40:38;17.33;;;6.28;;
42124;SDS011;27787;44.594;11.046;2023-07-20T10:43:22;16.08;;;6.18;;
42124;SDS011;27787;44.594;11.046;2023-07-20T10:46:07;17.98;;;7.43;;
42124;SDS011;27787;44.594;11.046;2023-07-20T10:49:03;11.18;;;5.60;;
42124;SDS011;27787;44.594;11.046;2023-07-20T10:51:49;20.58;;;6.13;;
42124;SDS011;27787;44.594;11.046;2023-07-20T10:54:47;10.70;;;5.60;;
42124;SDS011;27787;44.594;11.046;2023-07-20T10:57:32;12.88;;;5.47;;
42124;SDS011;27787;44.594;11.046;2023-07-20T11:00:18;14.23;;;6.20;;
42124;SDS011;27787;44.594;11.046;2023-07-20T11:03:04;16.80;;;6.00;;
42124;SDS011;27787;44.594;11.046;2023-07-20T11:05:48;15.10;;;6.72;;
42124;SDS011;27787;44.594;11.046;2023-07-20T11:08:39;16.85;;;6.25;;
42124;SDS011;27787;44.594;11.046;2023-07-20T11:11:29;13.27;;;6.25;;
42124;SDS011;27787;44.594;11.046;2023-07-20T11:14:21;10.23;;;5.85;;
42124;SDS011;27787;44.594;11.046;2023-07-20T11:19:58;16.05;;;6.55;;
42124;SDS011;27787;44.594;11.046;2023-07-20T11:22:47;12.82;;;6.95;;
42124;SDS011;27787;44.594;11.046;2023-07-20T11:25:39;12.50;;;5.65;;
42124;SDS011;27787;44.594;11.046;2023-07-20T11:28:23;17.23;;;6.65;;
42124;SDS011;27787;44.594;11.046;2023-07-20T11:31:08;14.40;;;6.80;;
42124;SDS011;27787;44.594;11.046;2023-07-20T11:33:52;14.05;;;7.28;;
42124;SDS011;27787;44.594;11.046;2023-07-20T11:36:36;12.85;;;6.65;;
42124;SDS011;27787;44.594;11.046;2023-07-20T11:39:22;11.95;;;5.97;;
42124;SDS011;27787;44.594;11.046;2023-07-20T11:42:08;20.30;;;6.30;;
42124;SDS011;27787;44.594;11.046;2023-07-20T11:44:52;13.77;;;6.13;;
42124;SDS011;27787;44.594;11.046;2023-07-20T11:47:40;15.38;;;6.63;;
42124;SDS011;27787;44.594;11.046;2023-07-20T11:50:25;14.52;;;6.43;;
42124;SDS011;27787;44.594;11.046;2023-07-20T11:53:09;16.30;;;7.33;;
42124;SDS011;27787;44.594;11.046;2023-07-20T11:58:45;10.00;;;6.17;;
42124;SDS011;27787;44.594;11.046;2023-07-20T12:01:30;14.93;;;6.32;;
42124;SDS011;27787;44.594;11.046;2023-07-20T12:04:19;10.75;;;5.78;;
42124;SDS011;27787;44.594;11.046;2023-07-20T12:07:03;16.92;;;6.00;;
42124;SDS011;27787;44.594;11.046;2023-07-20T12:10:07;16.73;;;5.95;;
42124;SDS011;27787;44.594;11.046;2023-07-20T12:12:51;15.23;;;6.35;;
42124;SDS011;27787;44.594;11.046;2023-07-20T12:18:22;10.18;;;5.18;;
42124;SDS011;27787;44.594;11.046;2023-07-20T12:21:07;12.52;;;6.50;;
42124;SDS011;27787;44.594;11.046;2023-07-20T12:23:52;13.50;;;6.05;;
42124;SDS011;27787;44.594;11.046;2023-07-20T12:26:37;12.30;;;5.57;;
42124;SDS011;27787;44.594;11.046;2023-07-20T12:29:21;11.65;;;5.78;;
42124;SDS011;27787;44.594;11.046;2023-07-20T12:32:05;12.70;;;6.22;;
42124;SDS011;27787;44.594;11.046;2023-07-20T12:34:50;14.27;;;6.22;;
42124;SDS011;27787;44.594;11.046;2023-07-20T12:37:34;17.98;;;6.32;;
42124;SDS011;27787;44.594;11.046;2023-07-20T12:40:18;13.65;;;6.13;;
42124;SDS011;27787;44.594;11.046;2023-07-20T12:43:03;17.00;;;6.25;;
42124;SDS011;27787;44.594;11.046;2023-07-20T12:45:48;10.82;;;6.05;;
42124;SDS011;27787;44.594;11.046;2023-07-20T12:48:32;11.50;;;5.43;;
42124;SDS011;27787;44.594;11.046;2023-07-20T12:51:17;11.57;;;6.07;;
42124;SDS011;27787;44.594;11.046;2023-07-20T12:54:02;14.30;;;5.78;;
42124;SDS011;27787;44.594;11.046;2023-07-20T12:56:46;10.90;;;5.85;;
42124;SDS011;27787;44.594;11.046;2023-07-20T12:59:30;11.93;;;5.37;;
42124;SDS011;27787;44.594;11.046;2023-07-20T13:02:14;13.57;;;6.40;;
42124;SDS011;27787;44.594;11.046;2023-07-20T13:04:59;14.30;;;5.80;;
42124;SDS011;27787;44.594;11.046;2023-07-20T13:07:43;12.53;;;5.83;;
42124;SDS011;27787;44.594;11.046;2023-07-20T13:10:28;15.05;;;6.00;;
42124;SDS011;27787;44.594;11.046;2023-07-20T13:13:13;14.38;;;6.03;;
42124;SDS011;27787;44.594;11.046;2023-07-20T13:15:56;17.57;;;6.00;;
42124;SDS011;27787;44.594;11.046;2023-07-20T13:18:40;12.95;;;5.75;;
42124;SDS011;27787;44.594;11.046;2023-07-20T13:21:24;10.67;;;5.50;;
42124;SDS011;27787;44.594;11.046;2023-07-20T13:24:09;10.63;;;5.60;;
42124;SDS011;27787;44.594;11.046;2023-07-20T13:26:53;16.08;;;5.93;;
42124;SDS011;27787;44.594;11.046;2023-07-20T13:29:37;16.95;;;7.90;;
42124;SDS011;27787;44.594;11.046;2023-07-20T13:32:21;12.55;;;5.38;;
42124;SDS011;27787;44.594;11.046;2023-07-20T13:35:06;8.43;;;5.20;;
42124;SDS011;27787;44.594;11.046;2023-07-20T13:37:50;14.30;;;5.35;;
42124;SDS011;27787;44.594;11.046;2023-07-20T13:40:34;14.05;;;6.07;;
42124;SDS011;27787;44.594;11.046;2023-07-20T13:43:19;12.65;;;5.13;;
42124;SDS011;27787;44.594;11.046;2023-07-20T13:46:03;14.95;;;5.78;;
42124;SDS011;27787;44.594;11.046;2023-07-20T13:48:47;10.68;;;5.38;;
42124;SDS011;27787;44.594;11.046;2023-07-20T13:54:16;10.68;;;5.53;;
42124;SDS011;27787;44.594;11.046;2023-07-20T13:57:00;14.07;;;5.07;;
42124;SDS011;27787;44.594;11.046;2023-07-20T13:59:44;12.40;;;5.43;;
42124;SDS011;27787;44.594;11.046;2023-07-20T14:02:29;13.90;;;5.00;;
42124;SDS011;27787;44.594;11.046;2023-07-20T14:05:12;9.83;;;5.23;;
42124;SDS011;27787;44.594;11.046;2023-07-20T14:07:59;15.30;;;5.50;;
42124;SDS011;27787;44.594;11.046;2023-07-20T14:10:43;7.82;;;5.18;;
42124;SDS011;27787;44.594;11.046;2023-07-20T14:13:27;12.88;;;5.95;;
42124;SDS011;27787;44.594;11.046;2023-07-20T14:16:12;16.98;;;5.68;;
42124;SDS011;27787;44.594;11.046;2023-07-20T14:18:56;12.45;;;5.50;;
42124;SDS011;27787;44.594;11.046;2023-07-20T14:21:40;12.43;;;5.88;;
42124;SDS011;27787;44.594;11.046;2023-07-20T14:24:25;13.10;;;5.78;;
42124;SDS011;27787;44.594;11.046;2023-07-20T14:27:10;11.05;;;5.20;;
42124;SDS011;27787;44.594;11.046;2023-07-20T14:29:54;12.55;;;5.80;;
42124;SDS011;27787;44.594;11.046;2023-07-20T14:32:40;13.35;;;5.43;;
42124;SDS011;27787;44.594;11.046;2023-07-20T14:35:24;10.82;;;5.28;;
42124;SDS011;27787;44.594;11.046;2023-07-20T14:38:08;13.00;;;4.88;;
42124;SDS011;27787;44.594;11.046;2023-07-20T14:40:52;16.48;;;6.32;;
42124;SDS011;27787;44.594;11.046;2023-07-20T14:46:20;14.50;;;5.35;;
42124;SDS011;27787;44.594;11.046;2023-07-20T14:49:05;13.40;;;6.45;;
42124;SDS011;27787;44.594;11.046;2023-07-20T14:51:49;12.60;;;5.68;;
42124;SDS011;27787;44.594;11.046;2023-07-20T14:54:33;10.15;;;5.55;;
42124;SDS011;27787;44.594;11.046;2023-07-20T14:57:17;13.52;;;4.97;;
42124;SDS011;27787;44.594;11.046;2023-07-20T15:00:01;10.70;;;5.53;;
42124;SDS011;27787;44.594;11.046;2023-07-20T15:02:47;10.32;;;5.45;;
42124;SDS011;27787;44.594;11.046;2023-07-20T15:05:31;11.13;;;5.15;;
42124;SDS011;27787;44.594;11.046;2023-07-20T15:08:15;13.35;;;5.57;;
42124;SDS011;27787;44.594;11.046;2023-07-20T15:11:00;12.05;;;5.20;;
42124;SDS011;27787;44.594;11.046;2023-07-20T15:13:44;11.73;;;5.40;;
42124;SDS011;27787;44.594;11.046;2023-07-20T15:16:28;11.30;;;5.38;;
42124;SDS011;27787;44.594;11.046;2023-07-20T15:19:12;12.02;;;5.97;;
42124;SDS011;27787;44.594;11.046;2023-07-20T15:21:57;14.88;;;5.50;;
42124;SDS011;27787;44.594;11.046;2023-07-20T15:24:41;14.23;;;5.28;;
42124;SDS011;27787;44.594;11.046;2023-07-20T15:27:25;12.25;;;5.43;;
42124;SDS011;27787;44.594;11.046;2023-07-20T15:30:10;10.77;;;6.18;;
42124;SDS011;27787;44.594;11.046;2023-07-20T15:32:55;13.88;;;4.88;;
42124;SDS011;27787;44.594;11.046;2023-07-20T15:35:40;11.23;;;5.60;;
42124;SDS011;27787;44.594;11.046;2023-07-20T15:38:24;14.43;;;5.78;;
42124;SDS011;27787;44.594;11.046;2023-07-20T15:41:09;12.93;;;5.20;;
42124;SDS011;27787;44.594;11.046;2023-07-20T15:43:54;10.70;;;5.47;;
42124;SDS011;27787;44.594;11.046;2023-07-20T15:49:25;15.95;;;5.38;;
42124;SDS011;27787;44.594;11.046;2023-07-20T15:52:11;10.43;;;5.25;;
42124;SDS011;27787;44.594;11.046;2023-07-20T15:54:56;12.40;;;5.03;;
42124;SDS011;27787;44.594;11.046;2023-07-20T16:00:25;9.98;;;4.75;;
42124;SDS011;27787;44.594;11.046;2023-07-20T16:03:09;13.73;;;5.63;;
42124;SDS011;27787;44.594;11.046;2023-07-20T16:05:54;19.02;;;6.28;;
42124;SDS011;27787;44.594;11.046;2023-07-20T16:08:38;12.07;;;5.53;;
42124;SDS011;27787;44.594;11.046;2023-07-20T16:14:07;11.27;;;5.00;;
42124;SDS011;27787;44.594;11.046;2023-07-20T16:19:35;10.85;;;5.03;;
42124;SDS011;27787;44.594;11.046;2023-07-20T16:22:19;13.65;;;4.63;;
42124;SDS011;27787;44.594;11.046;2023-07-20T16:25:04;12.95;;;5.35;;
42124;SDS011;27787;44.594;11.046;2023-07-20T16:27:49;14.82;;;6.20;;
42124;SDS011;27787;44.594;11.046;2023-07-20T16:30:33;7.95;;;4.45;;
42124;SDS011;27787;44.594;11.046;2023-07-20T16:33:18;9.13;;;4.70;;
42124;SDS011;27787;44.594;11.046;2023-07-20T16:36:03;8.85;;;4.65;;
42124;SDS011;27787;44.594;11.046;2023-07-20T16:41:31;9.68;;;4.35;;
42124;SDS011;27787;44.594;11.046;2023-07-20T16:44:16;12.25;;;4.85;;
42124;SDS011;27787;44.594;11.046;2023-07-20T16:47:00;13.20;;;5.50;;
42124;SDS011;27787;44.594;11.046;2023-07-20T16:49:44;8.57;;;4.22;;
42124;SDS011;27787;44.594;11.046;2023-07-20T16:52:29;8.52;;;4.32;;
42124;SDS011;27787;44.594;11.046;2023-07-20T16:55:13;9.43;;;4.40;;
42124;SDS011;27787;44.594;11.046;2023-07-20T16:57:58;11.38;;;4.53;;
42124;SDS011;27787;44.594;11.046;2023-07-20T17:00:42;8.73;;;4.65;;
42124;SDS011;27787;44.594;11.046;2023-07-20T17:03:26;11.55;;;4.70;;
42124;SDS011;27787;44.594;11.046;2023-07-20T17:06:12;13.55;;;4.82;;
42124;SDS011;27787;44.594;11.046;2023-07-20T17:08:56;8.57;;;4.40;;
42124;SDS011;27787;44.594;11.046;2023-07-20T17:11:44;16.35;;;4.72;;
42124;SDS011;27787;44.594;11.046;2023-07-20T17:14:28;11.30;;;5.07;;
42124;SDS011;27787;44.594;11.046;2023-07-20T17:17:13;16.98;;;5.00;;
42124;SDS011;27787;44.594;11.046;2023-07-20T17:19:57;16.90;;;5.30;;
42124;SDS011;27787;44.594;11.046;2023-07-20T17:22:41;12.75;;;5.47;;
42124;SDS011;27787;44.594;11.046;2023-07-20T17:25:25;10.10;;;4.65;;
42124;SDS011;27787;44.594;11.046;2023-07-20T17:28:12;10.75;;;5.00;;
42124;SDS011;27787;44.594;11.046;2023-07-20T17:30:58;14.88;;;5.30;;
42124;SDS011;27787;44.594;11.046;2023-07-20T17:33:43;12.63;;;5.45;;
42124;SDS011;27787;44.594;11.046;2023-07-20T17:36:28;14.02;;;5.38;;
42124;SDS011;27787;44.594;11.046;2023-07-20T17:39:13;16.38;;;5.97;;
42124;SDS011;27787;44.594;11.046;2023-07-20T17:41:57;9.23;;;5.40;;
42124;SDS011;27787;44.594;11.046;2023-07-20T17:44:41;17.02;;;5.90;;
42124;SDS011;27787;44.594;11.046;2023-07-20T17:47:26;14.35;;;5.10;;
42124;SDS011;27787;44.594;11.046;2023-07-20T17:50:10;8.90;;;4.90;;
42124;SDS011;27787;44.594;11.046;2023-07-20T17:52:54;15.90;;;6.07;;
42124;SDS011;27787;44.594;11.046;2023-07-20T17:55:40;14.13;;;5.40;;
42124;SDS011;27787;44.594;11.046;2023-07-20T17:58:24;15.30;;;5.68;;
42124;SDS011;27787;44.594;11.046;2023-07-20T18:01:08;9.07;;;5.38;;
42124;SDS011;27787;44.594;11.046;2023-07-20T18:03:53;11.88;;;5.15;;
42124;SDS011;27787;44.594;11.046;2023-07-20T18:06:37;11.45;;;5.20;;
42124;SDS011;27787;44.594;11.046;2023-07-20T18:09:21;9.95;;;5.15;;
42124;SDS011;27787;44.594;11.046;2023-07-20T18:14:50;16.08;;;5.60;;
42124;SDS011;27787;44.594;11.046;2023-07-20T18:17:36;14.43;;;6.28;;
42124;SDS011;27787;44.594;11.046;2023-07-20T18:20:21;14.50;;;5.38;;
42124;SDS011;27787;44.594;11.046;2023-07-20T18:23:05;12.80;;;4.82;;
42124;SDS011;27787;44.594;11.046;2023-07-20T18:25:49;12.90;;;5.40;;
42124;SDS011;27787;44.594;11.046;2023-07-20T18:28:34;12.10;;;5.40;;
42124;SDS011;27787;44.594;11.046;2023-07-20T18:31:17;15.50;;;4.65;;
42124;SDS011;27787;44.594;11.046;2023-07-20T18:34:02;16.58;;;5.63;;
42124;SDS011;27787;44.594;11.046;2023-07-20T18:36:45;14.55;;;5.38;;
42124;SDS011;27787;44.594;11.046;2023-07-20T18:39:30;11.70;;;5.00;;
42124;SDS011;27787;44.594;11.046;2023-07-20T18:42:14;17.92;;;5.22;;
42124;SDS011;27787;44.594;11.046;2023-07-20T18:47:43;11.35;;;5.00;;
42124;SDS011;27787;44.594;11.046;2023-07-20T18:50:28;14.68;;;6.32;;
42124;SDS011;27787;44.594;11.046;2023-07-20T18:53:13;15.77;;;5.60;;
42124;SDS011;27787;44.594;11.046;2023-07-20T18:55:57;12.23;;;5.57;;
42124;SDS011;27787;44.594;11.046;2023-07-20T18:58:41;14.02;;;5.90;;
42124;SDS011;27787;44.594;11.046;2023-07-20T19:04:09;9.93;;;5.22;;
42124;SDS011;27787;44.594;11.046;2023-07-20T19:06:54;17.73;;;6.80;;
42124;SDS011;27787;44.594;11.046;2023-07-20T19:09:38;12.48;;;5.35;;
42124;SDS011;27787;44.594;11.046;2023-07-20T19:12:22;10.88;;;5.55;;
42124;SDS011;27787;44.594;11.046;2023-07-20T19:15:07;11.18;;;5.55;;
42124;SDS011;27787;44.594;11.046;2023-07-20T19:17:53;11.25;;;6.43;;
42124;SDS011;27787;44.594;11.046;2023-07-20T19:20:37;15.35;;;6.10;;
42124;SDS011;27787;44.594;11.046;2023-07-20T19:23:21;14.75;;;6.60;;
42124;SDS011;27787;44.594;11.046;2023-07-20T19:26:08;16.40;;;6.30;;
42124;SDS011;27787;44.594;11.046;2023-07-20T19:28:53;13.45;;;5.80;;
42124;SDS011;27787;44.594;11.046;2023-07-20T19:34:22;11.93;;;6.30;;
42124;SDS011;27787;44.594;11.046;2023-07-20T19:37:06;12.60;;;6.28;;
42124;SDS011;27787;44.594;11.046;2023-07-20T19:39:51;12.45;;;6.50;;
42124;SDS011;27787;44.594;11.046;2023-07-20T19:42:35;17.40;;;6.40;;
42124;SDS011;27787;44.594;11.046;2023-07-20T19:45:20;14.63;;;6.10;;
42124;SDS011;27787;44.594;11.046;2023-07-20T19:48:04;19.15;;;6.63;;
42124;SDS011;27787;44.594;11.046;2023-07-20T19:50:50;14.80;;;6.38;;
42124;SDS011;27787;44.594;11.046;2023-07-20T19:53:35;14.40;;;5.80;;
42124;SDS011;27787;44.594;11.046;2023-07-20T19:56:19;17.48;;;6.97;;
42124;SDS011;27787;44.594;11.046;2023-07-20T19:59:03;17.35;;;6.50;;
42124;SDS011;27787;44.594;11.046;2023-07-20T20:01:48;16.52;;;6.65;;
42124;SDS011;27787;44.594;11.046;2023-07-20T20:04:32;18.53;;;6.13;;
42124;SDS011;27787;44.594;11.046;2023-07-20T20:07:16;16.23;;;6.72;;
42124;SDS011;27787;44.594;11.046;2023-07-20T20:10:02;12.20;;;5.43;;
42124;SDS011;27787;44.594;11.046;2023-07-20T20:12:48;17.58;;;6.90;;
42124;SDS011;27787;44.594;11.046;2023-07-20T20:15:32;18.52;;;6.53;;
42124;SDS011;27787;44.594;11.046;2023-07-20T20:18:17;14.48;;;6.20;;
42124;SDS011;27787;44.594;11.046;2023-07-20T20:21:02;15.02;;;5.97;;
42124;SDS011;27787;44.594;11.046;2023-07-20T20:23:46;20.63;;;5.97;;
42124;SDS011;27787;44.594;11.046;2023-07-20T20:26:30;12.75;;;6.45;;
42124;SDS011;27787;44.594;11.046;2023-07-20T20:29:15;16.92;;;6.18;;
42124;SDS011;27787;44.594;11.046;2023-07-20T20:31:59;22.43;;;6.33;;
42124;SDS011;27787;44.594;11.046;2023-07-20T20:34:44;15.38;;;6.05;;
42124;SDS011;27787;44.594;11.046;2023-07-20T20:37:28;11.63;;;6.05;;
42124;SDS011;27787;44.594;11.046;2023-07-20T20:40:12;12.00;;;6.00;;
42124;SDS011;27787;44.594;11.046;2023-07-20T20:42:57;12.90;;;6.15;;
42124;SDS011;27787;44.594;11.046;2023-07-20T20:45:40;16.00;;;6.40;;
42124;SDS011;27787;44.594;11.046;2023-07-20T20:48:25;15.50;;;6.60;;
42124;SDS011;27787;44.594;11.046;2023-07-20T20:51:11;13.25;;;6.47;;
42124;SDS011;27787;44.594;11.046;2023-07-20T20:53:55;19.48;;;6.18;;
42124;SDS011;27787;44.594;11.046;2023-07-20T20:56:39;10.77;;;5.43;;
42124;SDS011;27787;44.594;11.046;2023-07-20T20:59:24;18.67;;;6.60;;
42124;SDS011;27787;44.594;11.046;2023-07-20T21:02:08;25.17;;;7.43;;
42124;SDS011;27787;44.594;11.046;2023-07-20T21:04:53;26.15;;;6.85;;
42124;SDS011;27787;44.594;11.046;2023-07-20T21:07:37;21.10;;;6.03;;
42124;SDS011;27787;44.594;11.046;2023-07-20T21:10:22;15.38;;;6.50;;
42124;SDS011;27787;44.594;11.046;2023-07-20T21:13:06;11.73;;;6.03;;
42124;SDS011;27787;44.594;11.046;2023-07-20T21:15:54;14.35;;;5.88;;
42124;SDS011;27787;44.594;11.046;2023-07-20T21:18:39;13.55;;;6.30;;
42124;SDS011;27787;44.594;11.046;2023-07-20T21:21:23;15.75;;;6.55;;
42124;SDS011;27787;44.594;11.046;2023-07-20T21:24:07;16.90;;;6.50;;
42124;SDS011;27787;44.594;11.046;2023-07-20T21:26:51;24.00;;;6.97;;
42124;SDS011;27787;44.594;11.046;2023-07-20T21:29:35;19.50;;;6.78;;
42124;SDS011;27787;44.594;11.046;2023-07-20T21:32:20;10.82;;;5.68;;
42124;SDS011;27787;44.594;11.046;2023-07-20T21:35:04;17.73;;;7.47;;
42124;SDS011;27787;44.594;11.046;2023-07-20T21:37:50;11.85;;;6.20;;
42124;SDS011;27787;44.594;11.046;2023-07-20T21:40:38;13.65;;;7.65;;
42124;SDS011;27787;44.594;11.046;2023-07-20T21:43:22;15.43;;;5.80;;
42124;SDS011;27787;44.594;11.046;2023-07-20T21:46:06;15.27;;;6.30;;
42124;SDS011;27787;44.594;11.046;2023-07-20T21:48:51;13.35;;;6.38;;
42124;SDS011;27787;44.594;11.046;2023-07-20T21:51:35;19.35;;;7.03;;